Time;durP1;ratioP1;P1;durP2;ratioP2;P2;SDS_P1;SDS_P2;PMS_P1;PMS_P2;Temp;Humidity;BMP_temperature;BMP_pressure;BME280_temperature;BME280_humidity;BME280_pressure;Samples;Min_cycle;Max_cycle;Signal;HPM_P1;HPM_P2
2023/02/17 00:02:18;;;;;;;;;;;19.00;53.00;;;;;;7523514;23;19917;-71
2023/02/17 00:05:19;;;;;;;;;;;19.00;53.10;;;;;;7523099;23;20301;-71
2023/02/17 00:08:19;;;;;;;;;;;19.00;53.10;;;;;;7523335;23;19914;-71
2023/02/17 00:11:20;;;;;;;;;;;19.00;53.10;;;;;;7522635;23;20334;-71
2023/02/17 00:14:20;;;;;;;;;;;19.00;53.10;;;;;;7522813;23;19910;-71
2023/02/17 00:17:21;;;;;;;;;;;19.00;53.10;;;;;;7523325;23;19971;-71
2023/02/17 00:20:21;;;;;;;;;;;19.00;53.10;;;;;;7523082;23;19916;-72
2023/02/17 00:23:22;;;;;;;;;;;19.00;53.10;;;;;;7522847;23;19988;-71
2023/02/17 00:26:22;;;;;;;;;;;19.00;53.10;;;;;;7522717;23;19949;-71
2023/02/17 00:29:23;;;;;;;;;;;19.00;53.10;;;;;;7522534;23;19925;-71
2023/02/17 00:32:23;;;;;;;;;;;19.00;53.10;;;;;;7522920;23;19905;-71
2023/02/17 00:35:24;;;;;;;;;;;19.00;53.10;;;;;;7522739;23;19906;-71
2023/02/17 00:38:24;;;;;;;;;;;19.10;53.10;;;;;;7522620;23;19924;-71
2023/02/17 00:41:26;;;;;;;;;;;19.00;53.10;;;;;;7522605;23;20414;-71
2023/02/17 00:44:26;;;;;;;;;;;19.00;53.10;;;;;;7522115;23;20130;-71
2023/02/17 00:47:27;;;;;;;;;;;19.00;53.10;;;;;;7522631;23;19910;-71
2023/02/17 00:50:27;;;;;;;;;;;19.00;53.10;;;;;;7522639;23;19906;-71
2023/02/17 00:53:28;;;;;;;;;;;19.00;53.10;;;;;;7522770;23;19910;-71
2023/02/17 00:56:28;;;;;;;;;;;19.00;53.10;;;;;;7522169;23;20367;-72
2023/02/17 00:59:29;;;;;;;;;;;19.00;53.10;;;;;;7523392;23;19963;-72
2023/02/17 01:02:29;;;;;;;;;;;19.00;53.10;;;;;;7522844;23;19914;-71
2023/02/17 01:05:30;;;;;;;;;;;19.00;53.20;;;;;;7522496;23;19910;-71
2023/02/17 01:08:30;;;;;;;;;;;19.00;53.10;;;;;;7523014;23;19910;-71
2023/02/17 01:11:31;;;;;;;;;;;19.00;53.20;;;;;;7522797;23;19906;-71
2023/02/17 01:14:32;;;;;;;;;;;19.00;53.10;;;;;;7522347;23;19913;-72
2023/02/17 01:17:32;;;;;;;;;;;19.00;53.10;;;;;;7522533;23;19925;-71
2023/02/17 01:20:34;;;;;;;;;;;19.00;53.10;;;;;;7523371;23;19910;-71
2023/02/17 01:23:34;;;;;;;;;;;19.00;53.10;;;;;;7522753;23;19913;-72
2023/02/17 01:26:35;;;;;;;;;;;19.00;53.20;;;;;;7522341;23;19906;-71
2023/02/17 01:29:36;;;;;;;;;;;19.00;53.10;;;;;;7522413;23;20314;-71
2023/02/17 01:32:36;;;;;;;;;;;19.00;53.10;;;;;;7522988;23;19906;-71
2023/02/17 01:35:37;;;;;;;;;;;19.00;53.10;;;;;;7522536;23;19905;-72
2023/02/17 01:38:37;;;;;;;;;;;19.00;53.10;;;;;;7521711;23;19992;-72
2023/02/17 01:41:38;;;;;;;;;;;19.00;53.80;;;;;;7522806;23;19933;-71
2023/02/17 01:44:58;;;;;;;;;;;19.00;53.10;;;;;;7522308;23;19968;-71
2023/02/17 01:48:01;;;;;;;;;;;19.00;53.10;;;;;;7522173;23;19916;-71
2023/02/17 01:51:04;;;;;;;;;;;19.00;53.10;;;;;;7522922;23;19913;-71
2023/02/17 01:54:07;;;;;;;;;;;19.00;53.10;;;;;;7522300;23;20276;-71
2023/02/17 01:57:08;;;;;;;;;;;19.00;53.10;;;;;;7522594;23;19977;-71
2023/02/17 02:00:10;;;;;;;;;;;19.00;53.20;;;;;;7568468;23;19905;-70
2023/02/17 02:03:11;;;;;;;;;;;19.00;53.90;;;;;;7522654;23;20001;-71
2023/02/17 02:06:15;;;;;;;;;;;19.00;53.20;;;;;;7521828;23;20273;-71
2023/02/17 02:09:20;;;;;;;;;;;19.00;53.10;;;;;;7522603;23;20325;-71
2023/02/17 02:12:20;;;;;;;;;;;19.00;53.10;;;;;;7522515;23;19952;-71
2023/02/17 02:15:22;;;;;;;;;;;19.00;53.10;;;;;;7522409;23;20453;-71
2023/02/17 02:18:39;;;;;;;;;;;19.00;53.10;;;;;;7522217;23;20288;-71
2023/02/17 02:21:59;;;;;;;;;;;19.00;53.10;;;;;;7522133;23;19940;-71
2023/02/17 02:25:14;;;;;;;;;;;19.00;53.20;;;;;;7522452;23;19913;-71
2023/02/17 02:28:28;;;;;;;;;;;19.00;53.20;;;;;;7522360;23;19964;-71
2023/02/17 02:31:47;;;;;;;;;;;19.00;53.20;;;;;;7521956;23;19995;-71
2023/02/17 02:34:56;;;;;;;;;;;19.00;53.20;;;;;;7522293;23;20230;-71
2023/02/17 02:38:12;;;;;;;;;;;19.00;53.10;;;;;;7521880;23;20032;-71
2023/02/17 02:41:16;;;;;;;;;;;19.00;53.20;;;;;;7522286;23;19906;-71
2023/02/17 02:44:19;;;;;;;;;;;19.00;53.20;;;;;;7522518;23;20276;-71
2023/02/17 02:47:38;;;;;;;;;;;19.00;53.20;;;;;;7522871;23;19909;-71
2023/02/17 02:50:57;;;;;;;;;;;19.00;53.20;;;;;;7522373;23;19910;-71
2023/02/17 02:54:04;;;;;;;;;;;19.00;53.20;;;;;;7522040;23;19905;-71
2023/02/17 02:57:10;;;;;;;;;;;19.00;53.20;;;;;;7522263;23;19909;-71
2023/02/17 03:00:26;;;;;;;;;;;19.00;53.20;;;;;;7522006;23;19916;-71
2023/02/17 03:03:33;;;;;;;;;;;19.00;53.20;;;;;;7522408;23;19914;-71
2023/02/17 03:06:53;;;;;;;;;;;19.00;53.20;;;;;;7522245;23;20241;-71
2023/02/17 03:09:55;;;;;;;;;;;19.00;53.20;;;;;;7521936;23;19933;-71
2023/02/17 03:12:56;;;;;;;;;;;19.00;53.20;;;;;;7522053;23;19909;-71
2023/02/17 03:15:57;;;;;;;;;;;19.00;53.20;;;;;;7522245;23;19906;-71
2023/02/17 03:18:58;;;;;;;;;;;19.00;53.10;;;;;;7522369;23;19921;-71
2023/02/17 03:22:18;;;;;;;;;;;19.00;53.20;;;;;;7521678;23;19910;-71
2023/02/17 03:25:19;;;;;;;;;;;19.00;53.20;;;;;;7521522;23;20318;-71
2023/02/17 03:28:19;;;;;;;;;;;19.00;53.20;;;;;;7522221;23;19906;-71
2023/02/17 03:31:20;;;;;;;;;;;19.00;53.20;;;;;;7521938;23;20314;-71
2023/02/17 03:34:20;;;;;;;;;;;19.00;53.20;;;;;;7522522;23;19910;-71
2023/02/17 03:37:21;;;;;;;;;;;19.00;53.20;;;;;;7521670;23;20329;-71
2023/02/17 03:40:21;;;;;;;;;;;19.00;53.20;;;;;;7521911;23;19906;-70
2023/02/17 03:43:22;;;;;;;;;;;19.00;53.20;;;;;;7521626;23;19917;-71
2023/02/17 03:46:22;;;;;;;;;;;19.00;53.20;;;;;;7521864;23;19910;-71
2023/02/17 03:49:23;;;;;;;;;;;19.00;53.20;;;;;;7521800;23;19917;-71
2023/02/17 03:52:23;;;;;;;;;;;19.00;53.20;;;;;;7521990;23;20383;-71
2023/02/17 03:55:24;;;;;;;;;;;19.00;53.20;;;;;;7521606;23;19906;-70
2023/02/17 03:58:24;;;;;;;;;;;19.00;53.20;;;;;;7521959;23;19909;-71
2023/02/17 04:01:25;;;;;;;;;;;19.00;53.20;;;;;;7521752;23;19906;-71
2023/02/17 04:04:25;;;;;;;;;;;19.00;53.20;;;;;;7522017;23;19922;-71
2023/02/17 04:07:26;;;;;;;;;;;19.00;53.20;;;;;;7521824;23;19909;-71
2023/02/17 04:10:27;;;;;;;;;;;19.00;53.20;;;;;;7521829;23;20241;-71
2023/02/17 04:13:27;;;;;;;;;;;19.00;53.20;;;;;;7521159;23;19924;-71
2023/02/17 04:16:28;;;;;;;;;;;19.00;53.20;;;;;;7521771;23;19945;-71
2023/02/17 04:19:28;;;;;;;;;;;19.00;53.20;;;;;;7521472;23;19917;-70
2023/02/17 04:22:29;;;;;;;;;;;19.00;53.20;;;;;;7521760;23;19925;-71
2023/02/17 04:25:32;;;;;;;;;;;19.00;53.20;;;;;;7522870;23;19910;-71
2023/02/17 04:28:36;;;;;;;;;;;18.90;53.10;;;;;;7523331;23;19977;-71
2023/02/17 04:31:36;;;;;;;;;;;19.00;53.20;;;;;;7522676;23;19917;-71
2023/02/17 04:34:37;;;;;;;;;;;19.00;53.30;;;;;;7522946;23;19905;-71
2023/02/17 04:37:37;;;;;;;;;;;19.00;53.20;;;;;;7523034;23;19931;-71
2023/02/17 04:40:38;;;;;;;;;;;19.00;53.20;;;;;;7523548;23;19941;-71
2023/02/17 04:43:38;;;;;;;;;;;19.00;53.20;;;;;;7522655;23;20325;-71
2023/02/17 04:46:39;;;;;;;;;;;19.00;53.20;;;;;;7523412;23;19967;-71
2023/02/17 04:49:39;;;;;;;;;;;18.90;53.10;;;;;;7523685;23;19905;-71
2023/02/17 04:52:40;;;;;;;;;;;19.00;53.20;;;;;;7522916;23;20324;-71
2023/02/17 04:55:40;;;;;;;;;;;19.00;53.20;;;;;;7523378;23;19964;-71
2023/02/17 04:58:41;;;;;;;;;;;19.00;53.20;;;;;;7523405;23;19905;-71
2023/02/17 05:01:42;;;;;;;;;;;19.00;53.20;;;;;;7523489;23;20506;-71
2023/02/17 05:04:42;;;;;;;;;;;19.00;53.20;;;;;;7522881;23;19936;-71
2023/02/17 05:07:43;;;;;;;;;;;19.00;53.20;;;;;;7523960;23;19909;-71
2023/02/17 05:10:44;;;;;;;;;;;19.00;53.20;;;;;;7523277;23;20256;-71
2023/02/17 05:13:44;;;;;;;;;;;19.00;53.30;;;;;;7522713;23;19948;-71
2023/02/17 05:16:45;;;;;;;;;;;19.00;53.20;;;;;;7523000;23;19992;-70
2023/02/17 05:19:45;;;;;;;;;;;19.00;53.20;;;;;;7523248;23;19910;-71
2023/02/17 05:22:45;;;;;;;;;;;19.00;53.30;;;;;;7523096;23;20227;-71
2023/02/17 05:25:46;;;;;;;;;;;19.00;53.20;;;;;;7522244;23;19909;-71
2023/02/17 05:28:46;;;;;;;;;;;19.00;53.20;;;;;;7523930;23;19906;-71
2023/02/17 05:31:47;;;;;;;;;;;19.00;53.30;;;;;;7523135;23;20365;-71
2023/02/17 05:34:47;;;;;;;;;;;19.00;53.20;;;;;;7523015;23;20280;-71
2023/02/17 05:37:48;;;;;;;;;;;19.00;53.30;;;;;;7522721;23;19949;-71
2023/02/17 05:40:49;;;;;;;;;;;19.00;53.30;;;;;;7522879;23;19913;-71
2023/02/17 05:43:49;;;;;;;;;;;19.00;53.30;;;;;;7522767;23;20214;-70
2023/02/17 05:46:50;;;;;;;;;;;19.00;53.30;;;;;;7522179;23;19914;-71
2023/02/17 05:49:50;;;;;;;;;;;19.00;53.20;;;;;;7570437;23;19964;-71
2023/02/17 05:52:51;;;;;;;;;;;19.00;53.30;;;;;;7522681;23;19912;-71
2023/02/17 05:55:51;;;;;;;;;;;19.00;53.30;;;;;;7522934;23;19948;-71
2023/02/17 05:58:52;;;;;;;;;;;19.00;53.90;;;;;;7522872;23;20286;-71
2023/02/17 06:01:52;;;;;;;;;;;19.00;53.30;;;;;;7522610;23;19910;-71
2023/02/17 06:04:53;;;;;;;;;;;19.00;53.30;;;;;;7522715;23;19979;-71
2023/02/17 06:07:53;;;;;;;;;;;19.00;53.30;;;;;;7522854;23;19906;-71
2023/02/17 06:10:53;;;;;;;;;;;19.00;53.30;;;;;;7523102;23;19912;-71
2023/02/17 06:13:54;;;;;;;;;;;19.00;53.30;;;;;;7522557;23;20387;-71
2023/02/17 06:16:55;;;;;;;;;;;19.00;53.30;;;;;;7522946;23;20337;-71
2023/02/17 06:19:56;;;;;;;;;;;19.00;53.30;;;;;;7522607;23;19937;-71
2023/02/17 06:22:56;;;;;;;;;;;19.00;53.40;;;;;;7522636;23;20001;-71
2023/02/17 06:25:57;;;;;;;;;;;19.00;53.30;;;;;;7522642;23;19971;-71
2023/02/17 06:28:57;;;;;;;;;;;19.00;54.00;;;;;;7522798;23;20028;-71
2023/02/17 06:31:58;;;;;;;;;;;19.00;53.30;;;;;;7523396;23;19916;-71
2023/02/17 06:34:58;;;;;;;;;;;19.00;53.30;;;;;;7522147;23;19921;-71
2023/02/17 06:37:59;;;;;;;;;;;19.00;53.30;;;;;;7522788;23;19924;-71
2023/02/17 06:40:59;;;;;;;;;;;19.00;53.30;;;;;;7522407;23;19909;-71
2023/02/17 06:44:00;;;;;;;;;;;19.00;53.40;;;;;;7522542;23;19917;-71
2023/02/17 06:47:00;;;;;;;;;;;19.00;53.40;;;;;;7521961;23;20284;-71
2023/02/17 06:50:01;;;;;;;;;;;19.00;53.40;;;;;;7523383;23;19909;-71
2023/02/17 06:53:01;;;;;;;;;;;19.00;54.10;;;;;;7522853;23;19912;-71
2023/02/17 06:56:02;;;;;;;;;;;19.00;53.40;;;;;;7523432;23;19928;-71
2023/02/17 06:59:03;;;;;;;;;;;19.00;53.40;;;;;;7521949;23;20288;-70
2023/02/17 07:02:03;;;;;;;;;;;19.00;53.40;;;;;;7514200;23;19909;-71
2023/02/17 07:05:04;;;;;;;;;;;19.00;53.40;;;;;;7524249;23;19941;-71
2023/02/17 07:08:05;;;;;;;;;;;19.00;53.40;;;;;;7571003;23;19941;-71
2023/02/17 07:11:06;;;;;;;;;;;19.00;53.40;;;;;;7524574;23;20009;-71
2023/02/17 07:14:07;;;;;;;;;;;19.00;53.40;;;;;;7524254;23;19910;-71
2023/02/17 07:17:07;;;;;;;;;;;19.00;53.40;;;;;;7524227;23;20245;-71
2023/02/17 07:20:08;;;;;;;;;;;19.00;53.40;;;;;;7524425;23;19910;-71
2023/02/17 07:23:08;;;;;;;;;;;19.00;53.40;;;;;;7518958;23;19971;-71
2023/02/17 07:26:10;;;;;;;;;;;19.00;53.40;;;;;;7512990;23;20320;-72
2023/02/17 07:29:11;;;;;;;;;;;19.00;53.40;;;;;;7525160;23;19910;-72
2023/02/17 07:32:11;;;;;;;;;;;19.00;53.40;;;;;;7523879;23;20325;-71
2023/02/17 07:35:12;;;;;;;;;;;19.00;53.40;;;;;;7512566;23;19913;-72
2023/02/17 07:38:12;;;;;;;;;;;19.00;53.40;;;;;;7524101;23;19953;-72
2023/02/17 07:41:14;;;;;;;;;;;19.00;53.40;;;;;;7523631;23;19913;-72
2023/02/17 07:44:15;;;;;;;;;;;19.00;53.40;;;;;;7569645;23;19924;-71
2023/02/17 07:47:15;;;;;;;;;;;19.00;53.40;;;;;;7523606;23;19909;-72
2023/02/17 07:50:16;;;;;;;;;;;19.00;53.40;;;;;;7523656;23;19916;-76
2023/02/17 07:53:16;;;;;;;;;;;19.00;53.40;;;;;;7522940;23;20048;-72
2023/02/17 07:56:18;;;;;;;;;;;19.00;53.40;;;;;;7522682;23;19917;-72
2023/02/17 07:59:18;;;;;;;;;;;19.00;53.40;;;;;;7523865;23;19925;-71
2023/02/17 08:02:19;;;;;;;;;;;19.00;53.40;;;;;;7524844;23;19913;-72
2023/02/17 08:05:20;;;;;;;;;;;19.00;53.40;;;;;;7524539;23;19909;-71
2023/02/17 08:15:00;;;;;;;;;;;19.00;54.10;;;;;;7524707;23;19906;-71
2023/02/17 08:18:03;;;;;;;;;;;19.00;53.40;;;;;;7524786;23;20037;-72
2023/02/17 08:21:04;;;;;;;;;;;19.00;53.40;;;;;;7532128;23;19915;-71
2023/02/17 08:24:04;;;;;;;;;;;19.00;53.40;;;;;;7524065;23;19915;-72
2023/02/17 08:27:05;;;;;;;;;;;19.00;53.40;;;;;;7525006;23;19905;-72
2023/02/17 08:30:06;;;;;;;;;;;19.00;53.40;;;;;;7524832;23;19906;-72
2023/02/17 08:33:06;;;;;;;;;;;19.00;53.50;;;;;;7521472;23;20003;-72
2023/02/17 08:36:07;;;;;;;;;;;19.00;53.50;;;;;;7496969;23;19909;-71
2023/02/17 08:39:13;;;;;;;;;;;19.00;54.20;;;;;;7520557;23;19924;-71
2023/02/17 08:42:13;;;;;;;;;;;19.00;53.50;;;;;;7501189;23;20245;-72
2023/02/17 08:45:14;;;;;;;;;;;19.00;53.40;;;;;;7524187;23;19910;-72
2023/02/17 08:48:15;;;;;;;;;;;19.00;53.40;;;;;;7570700;23;20333;-71
2023/02/17 08:51:16;;;;;;;;;;;19.00;53.30;;;;;;7524437;23;20008;-72
2023/02/17 08:54:17;;;;;;;;;;;19.00;53.30;;;;;;7523492;23;19906;-72
2023/02/17 08:57:18;;;;;;;;;;;19.00;53.20;;;;;;7525031;23;20210;-72
2023/02/17 09:00:18;;;;;;;;;;;19.10;53.20;;;;;;7524104;23;19937;-72
2023/02/17 09:03:19;;;;;;;;;;;19.10;53.20;;;;;;7524519;23;19997;-72
2023/02/17 09:06:20;;;;;;;;;;;19.10;53.20;;;;;;7523355;23;19950;-72
2023/02/17 09:09:21;;;;;;;;;;;19.10;53.20;;;;;;7523933;23;19980;-71
2023/02/17 09:12:22;;;;;;;;;;;19.10;53.10;;;;;;7523622;23;20233;-72
2023/02/17 09:15:22;;;;;;;;;;;19.10;53.10;;;;;;7523983;23;19935;-71
2023/02/17 09:18:24;;;;;;;;;;;19.10;53.10;;;;;;7523977;23;20219;-71
2023/02/17 09:21:24;;;;;;;;;;;19.10;53.10;;;;;;7524067;23;19989;-71
2023/02/17 09:24:25;;;;;;;;;;;19.10;53.10;;;;;;7523356;23;19922;-72
2023/02/17 09:27:25;;;;;;;;;;;19.10;53.10;;;;;;7524202;23;19981;-72
2023/02/17 09:30:26;;;;;;;;;;;19.10;53.20;;;;;;7523605;23;19913;-71
2023/02/17 09:33:26;;;;;;;;;;;19.10;53.20;;;;;;7524400;23;19920;-71
2023/02/17 09:36:28;;;;;;;;;;;19.10;53.20;;;;;;7523326;23;19917;-71
2023/02/17 09:39:29;;;;;;;;;;;19.10;53.30;;;;;;7524104;23;19918;-72
2023/02/17 09:42:32;;;;;;;;;;;19.10;53.30;;;;;;7523809;23;19979;-71
2023/02/17 09:45:34;;;;;;;;;;;19.10;53.30;;;;;;7523998;23;19912;-71
2023/02/17 09:48:35;;;;;;;;;;;19.10;53.30;;;;;;7524188;23;19906;-72
2023/02/17 09:51:52;;;;;;;;;;;19.00;53.30;;;;;;7524580;23;19936;-72
2023/02/17 09:55:06;;;;;;;;;;;19.00;53.30;;;;;;7524277;23;19940;-71
2023/02/17 09:58:06;;;;;;;;;;;19.10;53.40;;;;;;7525045;23;19905;-72
2023/02/17 10:01:11;;;;;;;;;;;19.10;53.30;;;;;;7524993;23;19905;-71
2023/02/17 10:04:17;;;;;;;;;;;19.00;53.30;;;;;;7524002;23;19929;-71
2023/02/17 10:07:25;;;;;;;;;;;19.00;53.30;;;;;;7524121;23;19992;-71
2023/02/17 10:10:29;;;;;;;;;;;19.10;54.10;;;;;;7524694;23;19972;-71
2023/02/17 10:13:32;;;;;;;;;;;19.00;53.30;;;;;;7524383;23;19909;-72
2023/02/17 10:16:44;;;;;;;;;;;19.00;53.40;;;;;;7524546;23;19940;-72
2023/02/17 10:19:53;;;;;;;;;;;19.10;53.40;;;;;;7524559;23;19906;-72
2023/02/17 10:23:00;;;;;;;;;;;19.00;53.40;;;;;;7523800;23;19914;-71
2023/02/17 10:26:00;;;;;;;;;;;19.00;53.40;;;;;;7523896;23;19920;-71
2023/02/17 10:29:05;;;;;;;;;;;19.10;53.40;;;;;;7524208;23;19905;-72
2023/02/17 10:32:14;;;;;;;;;;;19.10;53.50;;;;;;7523952;23;19906;-72
2023/02/17 10:35:16;;;;;;;;;;;19.10;53.50;;;;;;7522706;23;19909;-71
2023/02/17 10:38:26;;;;;;;;;;;19.10;53.50;;;;;;7524477;23;19918;-72
2023/02/17 10:41:31;;;;;;;;;;;19.10;53.50;;;;;;7524193;23;19910;-71
2023/02/17 10:44:35;;;;;;;;;;;19.10;53.50;;;;;;7524041;23;19913;-72
2023/02/17 10:47:37;;;;;;;;;;;19.10;53.50;;;;;;7523559;23;19906;-72
2023/02/17 10:50:40;;;;;;;;;;;19.10;53.50;;;;;;7524530;23;20325;-71
2023/02/17 10:53:44;;;;;;;;;;;19.10;54.20;;;;;;7524119;23;19910;-72
2023/02/17 10:56:46;;;;;;;;;;;19.10;53.50;;;;;;7524272;23;19910;-71
2023/02/17 10:59:48;;;;;;;;;;;19.10;53.50;;;;;;7523611;23;19910;-71
2023/02/17 11:02:51;;;;;;;;;;;19.10;53.30;;;;;;7523601;23;19914;-71
2023/02/17 11:05:55;;;;;;;;;;;19.10;53.40;;;;;;7523482;23;20239;-71
2023/02/17 11:09:10;;;;;;;;;;;19.00;53.40;;;;;;7523579;23;20281;-71
2023/02/17 11:12:13;;;;;;;;;;;19.00;53.40;;;;;;7523590;23;19910;-71
2023/02/17 11:15:18;;;;;;;;;;;19.10;53.40;;;;;;7524373;23;20294;-71
2023/02/17 11:18:26;;;;;;;;;;;19.00;53.30;;;;;;7523577;23;19909;-71
2023/02/17 11:21:27;;;;;;;;;;;19.10;53.40;;;;;;7523679;23;19906;-71
2023/02/17 11:24:29;;;;;;;;;;;19.10;53.40;;;;;;7522696;23;19989;-71
2023/02/17 11:27:30;;;;;;;;;;;19.10;53.40;;;;;;7523638;23;20258;-71
2023/02/17 11:30:31;;;;;;;;;;;19.10;53.40;;;;;;7523065;23;19905;-71
2023/02/17 11:33:32;;;;;;;;;;;19.10;53.40;;;;;;7523485;23;19909;-71
2023/02/17 11:36:32;;;;;;;;;;;19.10;53.40;;;;;;7523253;23;19913;-71
2023/02/17 11:39:36;;;;;;;;;;;19.10;53.40;;;;;;7523763;23;20021;-71
2023/02/17 11:42:37;;;;;;;;;;;19.10;53.40;;;;;;7523281;23;19910;-71
2023/02/17 11:45:57;;;;;;;;;;;19.00;53.40;;;;;;7523335;23;19910;-71
2023/02/17 11:49:28;;;;;;;;;;;19.00;53.40;;;;;;7524070;23;20326;-71
2023/02/17 11:52:28;;;;;;;;;;;19.10;53.40;;;;;;7523973;23;19972;-71
2023/02/17 11:55:29;;;;;;;;;;;19.10;53.50;;;;;;7522789;23;20293;-71
2023/02/17 11:58:48;;;;;;;;;;;19.00;53.40;;;;;;7522522;23;20028;-71
2023/02/17 12:01:51;;;;;;;;;;;19.10;53.40;;;;;;7522637;23;19914;-71
2023/02/17 12:04:55;;;;;;;;;;;19.10;53.40;;;;;;7522693;23;19960;-71
2023/02/17 12:08:04;;;;;;;;;;;19.10;53.50;;;;;;7522042;23;19917;-71
2023/02/17 12:11:11;;;;;;;;;;;19.10;53.50;;;;;;7522912;23;20377;-71
2023/02/17 12:14:30;;;;;;;;;;;19.10;53.50;;;;;;7522211;23;20284;-71
2023/02/17 12:17:49;;;;;;;;;;;19.10;53.50;;;;;;7522660;23;20004;-71
2023/02/17 12:20:54;;;;;;;;;;;19.10;53.50;;;;;;7522407;23;19932;-71
2023/02/17 12:24:12;;;;;;;;;;;19.00;53.40;;;;;;7522314;23;19924;-71
2023/02/17 12:27:19;;;;;;;;;;;19.00;53.40;;;;;;7522537;23;20136;-71
2023/02/17 12:30:22;;;;;;;;;;;19.10;53.60;;;;;;7522371;23;20391;-71
2023/02/17 12:33:26;;;;;;;;;;;19.10;53.50;;;;;;7522523;23;19905;-71
2023/02/17 12:36:29;;;;;;;;;;;19.10;53.50;;;;;;7547306;23;19986;-71
2023/02/17 12:39:33;;;;;;;;;;;19.10;53.50;;;;;;7522597;23;19976;-71
2023/02/17 12:42:40;;;;;;;;;;;19.00;53.40;;;;;;7522028;23;19910;-71
2023/02/17 12:45:41;;;;;;;;;;;19.00;53.40;;;;;;7523355;23;19941;-71
2023/02/17 12:48:52;;;;;;;;;;;19.10;53.50;;;;;;7524093;23;19940;-71
2023/02/17 12:51:52;;;;;;;;;;;19.10;53.60;;;;;;7523642;23;19988;-71
2023/02/17 12:54:52;;;;;;;;;;;19.10;53.60;;;;;;7523969;23;19906;-71
2023/02/17 12:57:59;;;;;;;;;;;19.10;53.60;;;;;;7523528;23;20337;-71
2023/02/17 13:01:07;;;;;;;;;;;19.10;53.60;;;;;;7524034;23;20349;-71
2023/02/17 13:04:13;;;;;;;;;;;19.10;53.60;;;;;;7523578;23;20475;-71
2023/02/17 13:07:33;;;;;;;;;;;19.10;53.60;;;;;;7524106;23;19906;-71
2023/02/17 13:10:35;;;;;;;;;;;19.10;53.60;;;;;;7523677;23;19909;-72
2023/02/17 13:13:36;;;;;;;;;;;19.10;53.80;;;;;;7524241;23;19913;-70
2023/02/17 13:16:43;;;;;;;;;;;19.10;53.60;;;;;;7522366;23;20412;-71
2023/02/17 13:19:44;;;;;;;;;;;19.10;53.60;;;;;;7523564;23;19961;-70
2023/02/17 13:22:46;;;;;;;;;;;19.10;53.60;;;;;;7523994;23;19910;-70
2023/02/17 13:25:59;;;;;;;;;;;19.10;54.30;;;;;;7523443;23;20321;-71
2023/02/17 13:29:08;;;;;;;;;;;19.10;54.20;;;;;;7523527;23;19917;-71
2023/02/17 13:32:10;;;;;;;;;;;19.20;53.90;;;;;;7523833;23;19988;-71
2023/02/17 13:35:29;;;;;;;;;;;19.20;53.80;;;;;;7521687;23;19918;-71
2023/02/17 13:38:30;;;;;;;;;;;19.10;53.60;;;;;;7523782;23;19926;-71
2023/02/17 13:41:43;;;;;;;;;;;19.10;53.60;;;;;;7530968;23;20117;-71
2023/02/17 13:44:45;;;;;;;;;;;19.10;53.70;;;;;;7523593;23;20352;-71
2023/02/17 13:47:47;;;;;;;;;;;19.10;53.70;;;;;;7524111;23;20229;-71
2023/02/17 13:50:50;;;;;;;;;;;19.10;53.70;;;;;;7524217;23;19905;-71
2023/02/17 13:53:50;;;;;;;;;;;19.10;53.80;;;;;;7524031;23;19905;-71
2023/02/17 13:56:52;;;;;;;;;;;19.10;53.80;;;;;;7523032;23;20303;-71
2023/02/17 14:00:03;;;;;;;;;;;19.10;53.70;;;;;;7523979;23;19910;-71
2023/02/17 14:03:23;;;;;;;;;;;19.10;53.80;;;;;;7523381;23;20389;-71
2023/02/17 14:06:29;;;;;;;;;;;19.10;54.50;;;;;;7523416;23;19914;-71
2023/02/17 14:09:33;;;;;;;;;;;19.10;53.80;;;;;;7523880;23;19960;-71
2023/02/17 14:12:34;;;;;;;;;;;19.10;53.80;;;;;;7523612;23;20329;-71
2023/02/17 14:15:34;;;;;;;;;;;19.10;53.80;;;;;;7523984;23;19916;-71
2023/02/17 14:18:36;;;;;;;;;;;19.10;53.80;;;;;;7521167;23;19989;-71
2023/02/17 14:21:38;;;;;;;;;;;19.10;53.80;;;;;;7522483;23;19910;-71
2023/02/17 14:24:39;;;;;;;;;;;19.10;53.80;;;;;;7522255;23;19917;-72
2023/02/17 14:27:41;;;;;;;;;;;19.10;53.80;;;;;;7522025;23;19972;-72
2023/02/17 14:30:42;;;;;;;;;;;19.10;53.80;;;;;;7524089;23;19905;-72
2023/02/17 14:33:50;;;;;;;;;;;19.00;53.80;;;;;;7523413;23;20237;-72
2023/02/17 14:36:51;;;;;;;;;;;19.10;53.80;;;;;;7523134;23;19933;-72
2023/02/17 14:39:54;;;;;;;;;;;19.10;53.80;;;;;;7522725;23;19918;-72
2023/02/17 14:42:54;;;;;;;;;;;19.10;53.80;;;;;;7522630;23;19922;-71
2023/02/17 14:45:55;;;;;;;;;;;19.10;53.80;;;;;;7569393;23;20281;-71
2023/02/17 14:48:55;;;;;;;;;;;19.10;53.80;;;;;;7523032;23;19913;-71
2023/02/17 14:51:56;;;;;;;;;;;19.10;53.80;;;;;;7522651;23;19909;-71
2023/02/17 14:54:58;;;;;;;;;;;19.10;53.90;;;;;;7522018;23;19910;-71
2023/02/17 14:57:58;;;;;;;;;;;19.00;53.80;;;;;;7522342;23;19910;-71
2023/02/17 15:00:59;;;;;;;;;;;19.10;53.90;;;;;;7522918;23;19916;-72
2023/02/17 15:04:01;;;;;;;;;;;19.10;53.90;;;;;;7521646;23;19918;-71
2023/02/17 15:07:02;;;;;;;;;;;19.10;53.90;;;;;;7521546;23;19909;-72
2023/02/17 15:10:09;;;;;;;;;;;19.10;53.90;;;;;;7512462;23;19917;-71
2023/02/17 15:13:13;;;;;;;;;;;19.10;53.90;;;;;;7522067;23;19948;-72
2023/02/17 15:16:14;;;;;;;;;;;19.00;53.80;;;;;;7496303;23;19963;-71
2023/02/17 15:19:18;;;;;;;;;;;19.00;53.80;;;;;;7569751;23;19906;-72
2023/02/17 15:22:18;;;;;;;;;;;19.00;53.90;;;;;;7521950;23;19916;-72
2023/02/17 15:25:22;;;;;;;;;;;19.10;53.90;;;;;;7522637;23;19910;-71
2023/02/17 15:28:23;;;;;;;;;;;19.10;53.90;;;;;;7522338;23;19992;-72
2023/02/17 15:31:24;;;;;;;;;;;19.00;53.90;;;;;;7522223;23;19963;-72
2023/02/17 15:34:29;;;;;;;;;;;19.10;53.90;;;;;;7522070;23;19905;-71
2023/02/17 15:37:30;;;;;;;;;;;19.10;53.90;;;;;;7521653;23;19918;-72
2023/02/17 15:40:32;;;;;;;;;;;19.00;53.90;;;;;;7522531;23;20226;-71
2023/02/17 15:43:34;;;;;;;;;;;19.10;53.90;;;;;;7520868;23;20324;-72
2023/02/17 15:46:34;;;;;;;;;;;19.10;53.90;;;;;;7522804;23;20241;-71
2023/02/17 15:49:35;;;;;;;;;;;19.10;53.90;;;;;;7522198;23;19910;-71
2023/02/17 15:52:35;;;;;;;;;;;19.10;53.90;;;;;;7521913;23;19920;-71
2023/02/17 15:55:37;;;;;;;;;;;19.10;53.90;;;;;;7521094;23;19906;-72
2023/02/17 15:58:38;;;;;;;;;;;19.10;54.00;;;;;;7521908;23;19906;-72
2023/02/17 16:01:38;;;;;;;;;;;19.10;54.00;;;;;;7522664;23;20190;-72
2023/02/17 16:04:39;;;;;;;;;;;19.10;54.00;;;;;;7521271;23;19920;-72
2023/02/17 16:07:39;;;;;;;;;;;19.00;53.90;;;;;;7521687;23;19906;-71
2023/02/17 16:10:44;;;;;;;;;;;19.10;54.00;;;;;;7522137;23;20321;-72
2023/02/17 16:13:45;;;;;;;;;;;19.10;54.60;;;;;;7521482;23;20262;-71
2023/02/17 16:16:45;;;;;;;;;;;19.00;53.90;;;;;;7521616;23;19909;-72
2023/02/17 16:19:46;;;;;;;;;;;19.10;54.00;;;;;;7522574;23;19909;-71
2023/02/17 16:22:46;;;;;;;;;;;19.10;54.00;;;;;;7522944;23;20360;-72
2023/02/17 16:25:47;;;;;;;;;;;19.10;54.00;;;;;;7522510;23;19920;-71
2023/02/17 16:28:48;;;;;;;;;;;19.10;54.00;;;;;;7523661;23;20386;-72
2023/02/17 16:31:49;;;;;;;;;;;19.10;53.90;;;;;;7522626;23;19910;-72
2023/02/17 16:34:49;;;;;;;;;;;19.10;53.90;;;;;;7522682;23;20300;-71
2023/02/17 16:37:52;;;;;;;;;;;19.10;53.90;;;;;;7523082;23;20040;-71
2023/02/17 16:40:53;;;;;;;;;;;19.10;54.00;;;;;;7524104;23;19964;-72
2023/02/17 16:43:54;;;;;;;;;;;19.10;54.00;;;;;;7522771;23;19917;-72
2023/02/17 16:46:55;;;;;;;;;;;19.10;54.00;;;;;;7675092;23;19937;-72
2023/02/17 16:49:55;;;;;;;;;;;19.10;54.00;;;;;;7523630;23;19956;-72
2023/02/17 16:52:57;;;;;;;;;;;19.10;54.00;;;;;;7523231;23;19909;-72
2023/02/17 16:55:58;;;;;;;;;;;19.10;54.00;;;;;;7523604;23;19916;-72
2023/02/17 16:58:58;;;;;;;;;;;19.10;54.10;;;;;;7524039;23;19906;-72
2023/02/17 17:02:00;;;;;;;;;;;19.10;54.00;;;;;;7523770;23;19906;-73
2023/02/17 17:05:00;;;;;;;;;;;19.10;54.00;;;;;;7522902;23;19939;-72
2023/02/17 17:08:02;;;;;;;;;;;19.10;54.00;;;;;;7523831;23;19914;-72
2023/02/17 17:11:02;;;;;;;;;;;19.10;54.10;;;;;;7523836;23;20245;-71
2023/02/17 17:14:03;;;;;;;;;;;19.10;54.00;;;;;;7521927;23;19916;-71
2023/02/17 17:17:03;;;;;;;;;;;19.10;54.00;;;;;;7521638;23;19921;-71
2023/02/17 17:20:04;;;;;;;;;;;19.10;54.10;;;;;;7512893;23;19992;-71
2023/02/17 17:23:09;;;;;;;;;;;19.10;54.10;;;;;;7520681;23;19914;-72
2023/02/17 17:26:12;;;;;;;;;;;19.10;54.10;;;;;;7520416;23;20337;-71
2023/02/17 17:29:14;;;;;;;;;;;19.10;54.00;;;;;;7520598;23;19936;-72
2023/02/17 17:32:14;;;;;;;;;;;19.10;54.00;;;;;;7521225;23;19964;-71
2023/02/17 17:35:15;;;;;;;;;;;19.10;54.10;;;;;;7521086;23;20310;-72
2023/02/17 17:38:16;;;;;;;;;;;19.10;54.10;;;;;;7521076;23;19917;-71
2023/02/17 17:41:17;;;;;;;;;;;19.10;54.10;;;;;;7520553;23;19960;-71
2023/02/17 17:44:18;;;;;;;;;;;19.10;54.10;;;;;;7520642;23;19936;-71
2023/02/17 17:47:19;;;;;;;;;;;19.10;54.10;;;;;;7520859;23;19910;-71
2023/02/17 17:50:21;;;;;;;;;;;19.10;54.10;;;;;;7520965;23;19912;-72